createdAt,value
2023-01-13T00:00:38.808Z,7.80
2023-01-13T00:03:07.415Z,7.80
2023-01-13T00:05:35.633Z,7.70
2023-01-13T00:08:04.999Z,7.60
2023-01-13T00:10:33.942Z,7.80
2023-01-13T00:13:05.630Z,7.90
2023-01-13T00:15:34.572Z,7.90
2023-01-13T00:18:02.923Z,7.90
2023-01-13T00:20:31.370Z,7.90
2023-01-13T00:23:00.222Z,7.90
2023-01-13T00:25:28.524Z,7.90
2023-01-13T00:27:56.668Z,8.50
2023-01-13T00:30:26.727Z,8.00
2023-01-13T00:32:54.866Z,8.10
2023-01-13T00:35:23.230Z,8.00
2023-01-13T00:37:51.676Z,8.00
2023-01-13T00:40:20.085Z,7.50
2023-01-13T00:43:06.030Z,8.10
2023-01-13T00:45:35.789Z,8.00
2023-01-13T00:48:04.131Z,8.00
2023-01-13T00:50:32.397Z,8.00
2023-01-13T00:53:01.488Z,8.10
2023-01-13T00:55:31.970Z,8.10
2023-01-13T00:58:03.750Z,8.10
2023-01-13T01:00:32.118Z,8.10
2023-01-13T01:03:02.003Z,8.10
2023-01-13T01:05:30.662Z,8.10
2023-01-13T01:07:58.808Z,8.00
2023-01-13T01:10:26.958Z,8.10
2023-01-13T01:12:55.047Z,8.20
2023-01-13T01:15:23.047Z,8.20
2023-01-13T01:17:51.246Z,8.30
2023-01-13T01:20:20.995Z,8.30
2023-01-13T01:22:49.335Z,8.30
2023-01-13T01:25:17.503Z,8.30
2023-01-13T01:27:45.618Z,8.40
2023-01-13T01:30:14.867Z,8.40
2023-01-13T01:32:42.941Z,8.40
2023-01-13T01:35:11.251Z,8.30
2023-01-13T01:37:40.670Z,8.40
2023-01-13T01:40:09.872Z,8.40
2023-01-13T01:42:55.293Z,8.40
2023-01-13T01:45:25.764Z,8.40
2023-01-13T01:48:11.537Z,8.40
2023-01-13T01:53:55.036Z,8.40
2023-01-13T01:56:23.284Z,8.40
2023-01-13T01:58:53.004Z,8.50
2023-01-13T02:01:22.006Z,8.50
2023-01-13T02:03:57.139Z,8.50
2023-01-13T02:06:26.204Z,8.50
2023-01-13T02:08:56.026Z,8.50
2023-01-13T02:11:50.460Z,8.60
2023-01-13T02:14:19.114Z,8.10
2023-01-13T02:16:55.284Z,9.80
2023-01-13T02:19:58.018Z,8.50
2023-01-13T02:22:44.813Z,6.00
2023-01-13T02:25:44.836Z,8.80
2023-01-13T02:28:29.566Z,9.50
2023-01-13T02:31:22.342Z,7.80
2023-01-13T02:34:02.947Z,8.30
2023-01-13T02:36:39.101Z,6.90
2023-01-13T02:39:16.021Z,10.40
2023-01-13T02:42:05.934Z,9.20
2023-01-13T02:44:43.759Z,8.00
2023-01-13T02:47:19.847Z,8.50
2023-01-13T02:49:51.429Z,11.60
2023-01-13T02:52:26.186Z,8.50
2023-01-13T02:54:57.660Z,8.50
2023-01-13T02:57:27.726Z,8.50
2023-01-13T02:59:57.179Z,8.50
2023-01-13T03:02:27.479Z,8.50
2023-01-13T03:04:57.247Z,8.50
2023-01-13T03:07:45.841Z,8.40
2023-01-13T03:10:26.136Z,8.40
2023-01-13T03:13:01.314Z,8.40
2023-01-13T03:15:40.526Z,8.40
2023-01-13T03:18:21.256Z,8.40
2023-01-13T03:20:58.001Z,7.80
2023-01-13T03:23:32.028Z,8.40
2023-01-13T03:26:07.651Z,9.70
2023-01-13T03:28:42.153Z,10.20
2023-01-13T03:31:15.621Z,7.60
2023-01-13T03:33:49.655Z,8.40
2023-01-13T03:36:22.286Z,8.40
2023-01-13T03:38:54.755Z,9.30
2023-01-13T03:41:27.964Z,8.40
2023-01-13T03:44:21.326Z,8.40
2023-01-13T03:46:59.676Z,8.40
2023-01-13T03:49:35.734Z,10.20
2023-01-13T03:52:08.928Z,8.80
2023-01-13T03:54:42.683Z,8.30
2023-01-13T03:57:13.349Z,8.10
2023-01-13T03:59:46.009Z,9.10
2023-01-13T04:02:17.914Z,7.90
2023-01-13T04:04:52.010Z,7.80
2023-01-13T04:07:30.928Z,9.10
2023-01-13T04:10:01.999Z,7.80
2023-01-13T04:12:52.306Z,8.20
2023-01-13T04:15:23.197Z,8.70
2023-01-13T04:17:51.972Z,7.90
2023-01-13T04:20:22.092Z,8.20
2023-01-13T04:22:50.122Z,7.90
2023-01-13T04:25:18.285Z,8.10
2023-01-13T04:27:46.268Z,9.40
2023-01-13T04:30:14.651Z,9.20
2023-01-13T04:32:42.748Z,8.20
2023-01-13T04:35:11.106Z,9.60
2023-01-13T04:37:40.651Z,9.00
2023-01-13T04:40:10.037Z,9.50
2023-01-13T04:42:38.092Z,8.70
2023-01-13T04:45:07.187Z,8.90
2023-01-13T04:47:35.112Z,8.70
2023-01-13T04:50:03.310Z,9.10
2023-01-13T04:52:31.328Z,8.90
2023-01-13T04:55:00.730Z,10.60
2023-01-13T04:57:28.802Z,8.80
2023-01-13T04:59:56.822Z,8.50
2023-01-13T05:02:24.885Z,6.10
2023-01-13T05:04:53.047Z,11.00
2023-01-13T05:07:21.140Z,11.50
2023-01-13T05:09:49.397Z,9.10
2023-01-13T05:12:36.256Z,7.70
2023-01-13T05:15:22.164Z,9.20
2023-01-13T05:17:51.129Z,9.20
2023-01-13T05:20:19.416Z,9.20
2023-01-13T05:23:07.241Z,9.30
2023-01-13T05:25:39.166Z,11.20
2023-01-13T05:28:09.313Z,9.30
2023-01-13T05:30:42.316Z,10.20
2023-01-13T05:33:10.768Z,9.50
2023-01-13T05:35:39.528Z,9.50
2023-01-13T05:38:07.619Z,9.10
2023-01-13T05:40:56.341Z,9.60
2023-01-13T05:43:26.186Z,9.50
2023-01-13T05:45:58.512Z,9.70
2023-01-13T05:48:28.795Z,9.70
2023-01-13T05:50:57.154Z,9.60
2023-01-13T05:53:25.650Z,10.20
2023-01-13T05:55:54.515Z,9.60
2023-01-13T05:58:26.748Z,9.60
2023-01-13T06:01:00.012Z,6.50
2023-01-13T06:03:28.020Z,9.70
2023-01-13T06:05:58.758Z,9.60
2023-01-13T06:08:27.268Z,9.60
2023-01-13T06:10:55.377Z,7.90
2023-01-13T06:13:25.398Z,9.60
2023-01-13T06:15:56.949Z,6.90
2023-01-13T06:18:25.337Z,9.70
2023-01-13T06:20:53.314Z,10.50
2023-01-13T06:23:21.515Z,9.80
2023-01-13T06:25:57.738Z,9.70
2023-01-13T06:28:27.711Z,9.70
2023-01-13T06:30:59.512Z,9.60
2023-01-13T06:33:31.351Z,9.70
2023-01-13T06:36:03.434Z,7.70
2023-01-13T06:38:37.146Z,9.70
2023-01-13T06:41:06.090Z,9.70
2023-01-13T06:43:35.464Z,9.70
2023-01-13T06:46:03.830Z,9.70
2023-01-13T06:48:35.186Z,12.00
2023-01-13T06:51:03.921Z,9.70
2023-01-13T06:53:32.367Z,9.70
2023-01-13T06:56:00.524Z,10.40
2023-01-13T06:58:28.613Z,9.70
2023-01-13T07:01:01.395Z,9.60
2023-01-13T07:03:29.474Z,9.60
2023-01-13T07:05:57.703Z,10.20
2023-01-13T07:08:25.943Z,9.60
2023-01-13T07:10:54.196Z,9.50
2023-01-13T07:13:40.177Z,10.00
2023-01-13T07:16:10.798Z,9.60
2023-01-13T07:18:39.200Z,9.80
2023-01-13T07:21:09.464Z,9.90
2023-01-13T07:23:39.556Z,9.60
2023-01-13T07:26:08.325Z,9.60
2023-01-13T07:28:37.279Z,9.60
2023-01-13T07:31:05.930Z,9.50
2023-01-13T07:33:35.815Z,10.00
2023-01-13T07:36:05.878Z,9.80
2023-01-13T07:38:38.429Z,9.70
2023-01-13T07:41:20.842Z,9.50
2023-01-13T07:43:48.876Z,9.50
2023-01-13T07:46:17.129Z,10.50
2023-01-13T07:48:49.590Z,10.20
2023-01-13T07:51:17.829Z,9.50
2023-01-13T07:53:46.032Z,9.40
2023-01-13T07:56:14.373Z,11.10
2023-01-13T07:58:42.533Z,9.50
2023-01-13T08:01:12.411Z,9.20
2023-01-13T08:03:40.887Z,9.50
2023-01-13T08:06:10.994Z,9.80
2023-01-13T08:08:40.206Z,9.60
2023-01-13T08:11:09.721Z,9.20
2023-01-13T08:13:37.894Z,9.70
2023-01-13T08:16:07.725Z,9.70
2023-01-13T08:18:36.804Z,9.70
2023-01-13T08:21:08.042Z,9.70
2023-01-13T08:23:38.709Z,9.60
2023-01-13T08:26:08.726Z,9.70
2023-01-13T08:28:37.422Z,9.70
2023-01-13T08:31:08.814Z,9.80
2023-01-13T08:33:37.797Z,9.80
2023-01-13T08:36:07.824Z,9.80
2023-01-13T08:38:38.480Z,9.80
2023-01-13T08:41:11.113Z,9.80
2023-01-13T08:43:39.203Z,10.00
2023-01-13T08:46:07.740Z,10.10
2023-01-13T08:48:35.828Z,10.00
2023-01-13T08:51:06.353Z,10.00
2023-01-13T08:53:34.621Z,10.00
2023-01-13T08:56:10.994Z,10.40
2023-01-13T08:58:39.145Z,10.00
2023-01-13T09:01:08.756Z,11.80
2023-01-13T09:03:37.006Z,10.10
2023-01-13T09:06:06.523Z,10.10
2023-01-13T09:08:34.997Z,10.20
2023-01-13T09:11:26.081Z,11.00
2023-01-13T09:13:53.123Z,10.90
2023-01-13T09:16:21.450Z,9.10
2023-01-13T09:18:49.874Z,10.20
2023-01-13T09:21:19.782Z,10.20
2023-01-13T09:23:48.170Z,10.30
2023-01-13T09:26:21.601Z,10.80
2023-01-13T09:28:50.302Z,10.40
2023-01-13T09:31:18.481Z,11.10
2023-01-13T09:34:04.482Z,10.50
2023-01-13T09:36:33.259Z,10.60
2023-01-13T09:39:01.758Z,10.50
2023-01-13T09:41:53.600Z,10.60
2023-01-13T09:44:40.921Z,10.70
2023-01-13T09:47:21.250Z,10.70
2023-01-13T09:49:49.788Z,10.70
2023-01-13T09:52:21.038Z,10.60
2023-01-13T09:54:55.075Z,10.70
2023-01-13T09:57:28.087Z,10.80
2023-01-13T09:59:57.726Z,10.80
2023-01-13T10:02:37.145Z,10.90
2023-01-13T10:05:18.484Z,11.00
2023-01-13T10:07:52.146Z,11.10
2023-01-13T10:10:30.519Z,11.10
2023-01-13T10:13:14.638Z,11.00
2023-01-13T10:15:46.749Z,11.00
2023-01-13T10:18:23.692Z,11.00
2023-01-13T10:20:58.469Z,11.00
2023-01-13T10:23:50.136Z,10.90
2023-01-13T10:26:30.968Z,10.90
2023-01-13T10:29:01.510Z,10.80
2023-01-13T10:31:30.492Z,10.80
2023-01-13T10:34:01.240Z,10.90
2023-01-13T10:36:29.637Z,11.00
2023-01-13T10:39:09.871Z,11.00
2023-01-13T10:41:38.632Z,11.10
2023-01-13T10:44:19.515Z,11.10
2023-01-13T10:46:55.675Z,11.10
2023-01-13T10:49:31.116Z,11.20
2023-01-13T10:51:59.733Z,11.20
2023-01-13T10:54:29.007Z,11.30
2023-01-13T10:57:16.962Z,11.40
2023-01-13T10:59:47.172Z,11.50
2023-01-13T11:02:28.101Z,11.50
2023-01-13T11:05:06.006Z,11.70
2023-01-13T11:07:37.885Z,11.80
2023-01-13T11:10:28.051Z,12.00
2023-01-13T11:13:08.679Z,12.00
2023-01-13T11:15:45.507Z,12.10
2023-01-13T11:18:23.019Z,12.00
2023-01-13T11:20:54.298Z,12.70
2023-01-13T11:23:39.246Z,11.80
2023-01-13T11:26:14.687Z,11.70
2023-01-13T11:28:52.447Z,11.40
2023-01-13T11:31:33.137Z,11.20
2023-01-13T11:34:11.070Z,11.00
2023-01-13T11:42:25.072Z,11.00
2023-01-13T11:48:20.292Z,11.10
2023-01-13T11:57:44.801Z,11.00
2023-01-13T12:00:41.365Z,11.00
2023-01-13T12:03:37.547Z,11.00
2023-01-13T12:06:33.054Z,11.10
2023-01-13T12:16:11.382Z,11.20
2023-01-13T12:19:21.138Z,11.30
2023-01-13T12:25:39.381Z,8.20
2023-01-13T12:31:07.410Z,11.20
2023-01-13T12:34:01.181Z,11.00
2023-01-13T12:36:58.927Z,10.90
2023-01-13T12:42:55.753Z,10.70
2023-01-13T12:49:08.527Z,10.70
2023-01-13T12:52:35.864Z,10.70
2023-01-13T12:58:33.757Z,10.70
2023-01-13T13:07:27.949Z,10.20
2023-01-13T13:10:03.928Z,10.00
2023-01-13T13:50:21.629Z,10.50
2023-01-13T14:01:28.139Z,10.20
2023-01-13T14:04:53.202Z,10.30
2023-01-13T14:10:54.724Z,10.10
2023-01-13T15:04:31.903Z,5.20
2023-01-13T15:16:10.957Z,5.20
2023-01-13T16:26:54.619Z,5.10
2023-01-13T16:33:04.660Z,4.80
2023-01-13T17:43:00.777Z,5.80
2023-01-13T17:57:33.532Z,5.60
2023-01-13T18:08:33.418Z,6.00
2023-01-13T18:27:58.386Z,6.00
2023-01-13T18:31:18.047Z,6.00
2023-01-13T18:33:59.147Z,6.00
2023-01-13T19:17:48.952Z,5.90
2023-01-13T19:56:01.465Z,5.50
2023-01-13T19:58:49.910Z,5.50
2023-01-13T20:03:52.768Z,5.60
2023-01-13T20:12:28.757Z,5.60
2023-01-13T20:15:21.243Z,5.70
2023-01-13T22:10:34.381Z,4.10
2023-01-13T22:22:21.160Z,3.90
2023-01-13T22:25:21.468Z,4.00
2023-01-13T22:31:01.944Z,3.90
2023-01-13T22:39:22.985Z,3.90
2023-01-13T22:42:09.420Z,3.90
2023-01-13T22:44:53.133Z,3.90
2023-01-13T22:52:54.924Z,3.80
2023-01-13T22:58:18.731Z,3.80
2023-01-13T23:11:25.972Z,3.80
2023-01-13T23:14:33.688Z,3.80
2023-01-13T23:25:35.521Z,4.10
2023-01-13T23:34:11.420Z,4.30
2023-01-13T23:39:32.178Z,7.10
2023-01-13T23:42:13.551Z,4.30
2023-01-13T23:53:59.366Z,4.40
